Latest Coastal Weather Observations for Port Fairy

IDV60701

Issued at 8:35 am EST Thursday 2 October 2014 (issued every 10 minutes, with the page automatically refreshed every 10 minutes)

About coastal observations | Map of coastal stations | Coastal observations for VIC | Marine services | Other Formats
Station Details ID: 090175 Name: PORT FAIRY AWS Lat: -38.39 Lon: 142.23 Height: 10.0 m
Data from the previous 72 hours. | See also: Recent months at Port Fairy
Date/Time
EST
Temp

°C
Wind Pressure Rain
since 9am
mm
Weather Cloud Vis
km
Sea
Height
m
Swell
Dir
 
Speed
knots
Gust
knots
hPa Trend Height
m
Period
s
Dir
02/08:30am 13.1 WSW 15 20 1025.1 - 0.6 - - - - - - -
02/08:00am 12.8 W 13 17 1024.9 - 0.6 - - - - - - -
02/07:30am 12.9 WSW 15 19 1024.7 - 0.6 - - - - - - -
02/07:00am 12.7 WSW 16 23 1024.5 - 0.6 - - - - - - -
02/06:30am 12.6 WSW 17 23 1024.3 - 0.6 - - - - - - -
02/06:00am 12.7 WSW 15 23 1023.9 - 0.6 - - - - - - -
02/05:30am 12.7 WSW 16 19 1023.8 - 0.6 - - - - - - -
02/05:00am 12.1 W 10 17 1023.7 - 0.6 - - - - - - -
02/04:30am 12.2 W 14 19 1023.7 - 0.6 - - - - - - -
02/04:00am 12.7 WSW 16 21 1023.7 - 0.6 - - - - - - -
02/03:30am 12.1 W 14 24 1023.6 - 0.6 - - - - - - -
02/03:00am 11.8 W 12 18 1023.9 - 0.6 - - - - - - -
02/02:30am 11.2 W 11 18 1024.2 - 0.6 - - - - - - -
02/02:00am 10.7 W 11 15 1024.6 - 0.6 - - - - - - -
02/01:30am 10.1 NW 6 10 1024.7 - 0.4 - - - - - - -
02/01:00am 10.9 W 12 18 1024.9 - 0.4 - - - - - - -
02/12:30am 9.5 NW 6 10 1025.0 - 0.2 - - - - - - -
02/12:00am 10.1 NW 7 12 1025.2 - 0.2 Recent precip. - - - - - -
 
Date/Time
EST
Temp

°C
Wind Pressure Rain
since 9am
mm
Weather Cloud Vis
km
Sea
Height
m
Swell
Dir
 
Speed
knots
Gust
knots
hPa Trend Height
m
Period
s
Dir
01/11:30pm 9.8 NNW 6 9 1025.4 - 0.2 - - - - - - -
01/11:00pm 11.2 W 12 17 1025.6 - 0.0 - - - - - - -
01/10:30pm 10.8 NW 4 7 1025.5 - 0.0 - - - - - - -
01/10:00pm 11.4 NW 5 9 1025.8 - 0.0 - - - - - - -
01/09:30pm 12.1 W 8 13 1025.8 - 0.0 - - - - - - -
01/09:00pm 12.4 W 11 19 1025.9 - 0.0 - - - - - - -
01/08:30pm 12.0 WNW 7 11 1025.9 - 0.0 - - - - - - -
01/08:00pm 12.2 W 8 12 1025.8 - 0.0 - - - - - - -
01/07:30pm 12.4 W 11 15 1025.6 - 0.0 - - - - - - -
01/07:00pm 12.4 W 13 19 1025.5 - 0.0 - - - - - - -
01/06:30pm 12.4 W 11 15 1025.5 - 0.0 - - - - - - -
01/06:00pm 12.6 W 13 17 1025.6 - 0.0 - - - - - - -
01/05:30pm 12.7 W 14 19 1025.3 - 0.0 - - - - - - -
01/05:00pm 13.0 WSW 12 16 1025.2 - 0.0 - - - - - - -
01/04:30pm 13.7 WSW 15 19 1025.3 - 0.0 - - - - - - -
01/04:00pm 13.8 WSW 15 20 1025.1 - 0.0 - - - - - - -
01/03:30pm 13.3 WSW 14 18 1025.1 - 0.0 - - - - - - -
01/03:00pm 13.6 WSW 15 19 1025.1 - 0.0 - - - - - - -
01/02:30pm 14.4 WSW 14 17 1025.2 - 0.0 - - - - - - -
01/02:00pm 14.4 WSW 15 19 1025.3 - 0.0 - - - - - - -
01/01:30pm 14.4 WSW 14 18 1025.6 - 0.0 - - - - - - -
01/01:00pm 13.7 WSW 14 21 1025.5 - 0.0 - - - - - - -
01/12:30pm 14.5 WSW 14 20 1025.4 - 0.0 - - - - - - -
01/12:00pm 13.9 WSW 14 19 1025.6 - 0.0 - - - - - - -
01/11:30am 14.5 WSW 14 19 1025.4 - 0.0 - - - - - - -
01/11:00am 14.0 WSW 15 20 1025.3 - 0.0 - - - - - - -
01/10:30am 13.2 SW 15 21 1025.3 - 0.0 - - - - - - -
01/10:00am 13.7 WSW 14 19 1025.1 - 0.0 - - - - - - -
01/09:30am 12.9 SW 14 21 1024.8 - 0.0 - - - - - - -
01/09:00am 11.5 SW 14 20 1024.3 - 11.6 - - - - - - -
01/08:30am 12.3 SW 15 22 1023.6 - 11.6 - - - - - - -
01/08:01am 10.5 SW 16 26 1023.3 - 11.6 - - - - - - -
01/08:00am 10.5 SW 17 26 1023.3 - 11.6 - - - - - - -
01/07:46am 11.7 SW 16 28 1023.1 - 11.6 - - - - - - -
01/07:30am 11.3 WSW 14 21 1022.7 - 11.6 - - - - - - -
01/07:00am 11.4 SW 17 21 1022.2 - 11.6 - - - - - - -
01/06:30am 11.2 SW 17 23 1021.7 - 11.6 - - - - - - -
01/06:00am 11.1 SW 16 22 1021.1 - 11.6 - - - - - - -
01/05:30am 11.0 SW 15 21 1020.5 - 11.6 - - - - - - -
01/05:00am 10.9 SW 19 24 1020.2 - 11.6 - - - - - - -
01/04:30am 11.2 SW 19 26 1019.8 - 11.6 - - - - - - -
01/04:00am 11.0 SW 19 26 1019.5 - 11.6 - - - - - - -
01/03:30am 10.7 SW 20 27 1019.4 - 11.6 - - - - - - -
01/03:27am 10.8 SW 21 32 1019.4 - 11.6 - - - - - - -
01/03:00am 11.2 SW 20 26 1019.1 - 11.6 Recent precip. - - - - - -
01/02:30am 10.9 WSW 19 26 1018.8 - 11.6 - - - - - - -
01/02:09am 10.3 WSW 21 26 1018.7 - 11.6 - - - - - - -
01/02:03am 10.7 SSW 20 26 1018.6 - 11.4 - - - - - - -
01/02:00am 11.2 WSW 20 25 1018.6 - 11.4 - - - - - - -
01/01:30am 11.1 WSW 21 28 1018.3 - 11.4 - - - - - - -
01/01:00am 10.9 WSW 23 29 1018.1 - 11.4 - - - - - - -
01/12:30am 10.9 WSW 22 34 1017.7 - 11.4 - - - - - - -
01/12:00am 10.1 WSW 20 28 1017.2 - 11.4 - - - - - - -
 
Date/Time
EST
Temp

°C
Wind Pressure Rain
since 9am
mm
Weather Cloud Vis
km
Sea
Height
m
Swell
Dir
 
Speed
knots
Gust
knots
hPa Trend Height
m
Period
s
Dir
30/11:30pm 10.1 WSW 24 33 1016.9 - 11.4 - - - - - - -
30/11:00pm 9.2 SW 27 38 1016.7 - 11.4 - - - - - - -
30/10:30pm 8.9 W 21 32 1016.0 - 11.4 - - - - - - -
30/10:11pm 10.7 W 19 30 1015.7 - 11.0 - - - - - - -
30/10:00pm 9.6 W 19 28 1015.5 - 11.0 - - - - - - -
30/09:38pm 10.7 WSW 27 37 1015.3 - 11.0 - - - - - - -
30/09:30pm 10.5 WSW 30 37 1014.9 - 11.0 - - - - - - -
30/09:04pm 10.7 WSW 27 38 1014.4 - 10.8 - - - - - - -
30/09:00pm 10.8 WSW 24 34 1014.4 - 10.8 Recent precip. - - - - - -
30/08:54pm 10.4 WSW 20 33 1014.3 - 10.8 - - - - - - -
30/08:30pm 9.4 WSW 21 30 1014.0 - 10.8 - - - - - - -
30/08:08pm 10.6 SW 25 36 1013.8 - 10.4 - - - - - - -
30/08:00pm 10.3 SW 26 34 1013.5 - 10.4 - - - - - - -
30/07:59pm 10.3 SW 27 34 1013.5 - 10.4 - - - - - - -
30/07:30pm 11.0 W 23 33 1012.6 - 10.4 - - - - - - -
30/07:14pm 10.5 W 19 30 1012.3 - 10.4 - - - - - - -
30/07:00pm 10.3 W 18 27 1012.1 - 10.4 - - - - - - -
30/06:31pm 11.3 W 23 35 1011.6 - 10.4 - - - - - - -
30/06:30pm 11.3 W 22 32 1011.6 - 10.4 - - - - - - -
30/06:00pm 11.6 WSW 24 34 1011.1 - 10.4 - - - - - - -
30/05:32pm 11.9 WSW 28 39 1011.0 - 10.4 - - - - - - -
30/05:30pm 12.0 WSW 27 36 1010.9 - 10.4 - - - - - - -
30/05:00pm 12.1 W 25 36 1010.1 - 10.4 - - - - - - -
30/04:34pm 12.0 W 23 34 1009.6 - 10.4 - - - - - - -
30/04:30pm 12.3 W 23 32 1009.5 - 10.4 - - - - - - -
30/04:00pm 11.5 WSW 23 29 1009.1 - 10.4 - - - - - - -
30/03:40pm 10.5 WSW 24 30 1009.4 - 10.4 - - - - - - -
30/03:30pm 10.8 W 36 48 1008.8 - 10.2 - - - - - - -
30/03:28pm 11.4 W 35 47 1008.5 - 10.2 - - - - - - -
30/03:21pm 13.6 W 22 33 1008.0 - 10.2 - - - - - - -
30/03:00pm 13.7 W 24 34 1007.6 - 10.2 - - - - - - -
30/02:30pm 13.3 W 27 36 1007.0 - 10.2 - - - - - - -
30/02:00pm 11.7 W 23 34 1006.9 - 10.2 - - - - - - -
30/01:38pm 10.7 W 22 32 1006.1 - 10.2 - - - - - - -
30/01:30pm 9.9 W 24 32 1006.4 - 10.2 - - - - - - -
30/01:29pm 10.1 W 23 32 1006.5 - 10.2 - - - - - - -
30/01:12pm 10.4 WSW 36 47 1006.8 - 8.8 - - - - - - -
30/01:09pm 10.4 WSW 38 47 1006.6 - 8.6 - - - - - - -
30/01:00pm 11.0 W 26 40 1006.0 - 8.0 - - - - - - -
30/12:40pm 11.6 W 32 46 1004.9 - 6.2 - - - - - - -
30/12:39pm 11.8 W 36 46 1004.9 - 6.2 - - - - - - -
30/12:38pm 12.6 W 23 46 1004.8 - 6.0 - - - - - - -
30/12:30pm 13.6 W 19 32 1003.9 - 5.8 - - - - - - -
30/12:00pm 11.8 W 20 33 1004.4 - 5.2 Rain - - - - - -
30/11:53am 13.8 WNW 15 29 1004.1 - 4.0 - - - - - - -
30/11:30am 13.2 WNW 10 16 1004.0 - 3.8 - - - - - - -
30/11:00am 12.1 W 22 35 1004.5 - 3.4 - - - - - - -
30/10:47am 14.3 W 20 35 1004.6 - 1.4 - - - - - - -
30/10:30am 16.2 NW 12 21 1004.0 - 0.0 - - - - - - -
30/10:00am 16.9 NW 15 26 1004.3 - 0.0 - - - - - - -
30/09:38am 16.8 NW 15 26 1004.5 - 0.0 - - - - - - -
30/09:30am 17.2 NW 16 26 1004.5 - 0.0 - - - - - - -
30/09:00am 16.6 NW 15 27 1005.0 - 0.0 - - - - - - -
30/08:30am 16.3 NNW 11 20 1005.3 - 0.0 - - - - - - -
30/08:00am 14.7 NNW 9 17 1005.4 - 0.0 - - - - - - -
30/07:30am 13.4 NNW 10 16 1005.8 - 0.0 - - - - - - -
30/07:00am 12.7 N 10 17 1006.1 - 0.0 - - - - - - -
30/06:30am 12.6 NNW 10 16 1006.3 - 0.0 - - - - - - -
30/06:00am 12.7 NNW 10 17 1006.2 - 0.0 - - - - - - -
30/05:30am 12.7 NNW 10 16 1006.7 - 0.0 - - - - - - -
30/05:00am 12.3 NNW 11 16 1006.8 - 0.0 - - - - - - -
30/04:30am 11.8 NNW 10 15 1007.0 - 0.0 - - - - - - -
30/04:00am 11.5 N 9 16 1007.3 - 0.0 - - - - - - -
30/03:30am 11.2 N 9 14 1007.6 - 0.0 - - - - - - -
30/03:00am 10.5 N 8 11 1008.1 - 0.0 - - - - - - -
30/02:30am 10.5 N 8 14 1008.2 - 0.0 - - - - - - -
30/02:00am 10.5 N 8 12 1008.7 - 0.0 - - - - - - -
30/01:30am 10.2 N 6 10 1009.4 - 0.0 - - - - - - -
30/01:00am 10.2 N 7 12 1009.7 - 0.0 - - - - - - -
30/12:30am 10.1 N 5 8 1010.0 - 0.0 - - - - - - -
30/12:00am 10.5 NNW 6 8 1010.2 - 0.0 - - - - - - -
 
Date/Time
EST
Temp

°C
Wind Pressure Rain
since 9am
mm
Weather Cloud Vis
km
Sea
Height
m
Swell
Dir
 
Speed
knots
Gust
knots
hPa Trend Height
m
Period
s
Dir
29/11:30pm 10.9 NNW 6 8 1010.4 - 0.0 - - - - - - -
29/11:00pm 10.9 NNW 5 7 1010.8 - 0.0 - - - - - - -
29/10:30pm 10.9 NW 4 6 1011.1 - 0.0 - - - - - - -
29/10:00pm 11.2 WNW 4 6 1011.5 - 0.0 - - - - - - -
29/09:30pm 11.8 WNW 5 8 1011.6 - 0.0 - - - - - - -
29/09:00pm 12.4 WNW 6 9 1011.5 - 0.0 - - - - - - -
29/08:30pm 12.3 WNW 6 8 1011.5 - 0.0 - - - - - - -
29/08:00pm 13.2 WNW 5 10 1011.3 - 0.0 - - - - - - -
29/07:30pm 13.8 W 11 15 1010.9 - 0.0 - - - - - - -
29/07:00pm 13.8 W 11 16 1010.4 - 0.0 - - - - - - -
29/06:30pm 14.2 W 9 14 1010.1 - 0.0 - - - - - - -
29/06:00pm 15.2 W 9 14 1010.1 - 0.0 - - - - - - -
29/05:30pm 16.3 W 7 14 1009.9 - 0.0 - - - - - - -
29/05:00pm 16.1 WSW 10 13 1009.8 - 0.0 - - - - - - -
29/04:30pm 16.2 WSW 12 15 1010.0 - 0.0 - - - - - - -
29/04:00pm 16.4 WSW 13 16 1010.2 - 0.0 - - - - - - -
29/03:30pm 16.4 WSW 12 16 1010.3 - 0.0 - - - - - - -
29/03:00pm 20.3 WNW 6 13 1010.4 - 0.0 - - - - - - -
29/02:30pm 19.9 NW 10 17 1010.6 - 0.0 - - - - - - -
29/02:00pm 19.6 NW 10 19 1010.8 - 0.0 - - - - - - -
29/01:30pm 19.9 NW 9 17 1011.0 - 0.0 - - - - - - -
29/01:00pm 20.2 NNW 11 18 1011.1 - 0.0 - - - - - - -
29/12:30pm 19.2 NW 9 17 1011.3 - 0.0 - - - - - - -
29/12:00pm 18.0 W 10 13 1011.8 - 0.0 - - - - - - -
29/11:30am 18.8 NW 8 18 1012.1 - 0.0 - - - - - - -
29/11:00am 16.3 W 13 15 1012.2 - 0.0 - - - - - - -
29/10:30am 16.5 NW 10 19 1012.4 - 0.0 - - - - - - -
29/10:00am 15.9 WNW 12 21 1012.4 - 0.0 - - - - - - -
29/09:30am 15.3 WNW 11 17 1012.4 - 0.0 - - - - - - -
29/09:00am 14.9 WNW 9 15 1012.3 - 0.0 - - - - - - -

Other Formats:

Comma delimited format used in spreadsheet applications
http://www.bom.gov.au/fwo/IDV60701/IDV60701.94830.axf

JavaScript Object Notation format (JSON) in row-major order
http://www.bom.gov.au/fwo/IDV60701/IDV60701.94830.json